Sonic Adventure (DX): Overall Rankings

Records: Times | Rings | Scores | Races | Bosses | Freestyle
Leaders: Times | Rings | Scores | Races | Bosses | Freestyle | Overall
Rank Player Percent Points Date Grade
1 Sonicspeedruner 97.9% 359 01-16-19 S
2 Gamepro011 97.9% 364 01-16-19 A
3 DarkPolarNight 96.6% 591 01-16-19 A
4 Jawzun 93.0% 1232 01-16-19 A
5 Dashjump 91.5% 1495 01-16-19 A
6 DarkspinesSonic 89.7% 1817 01-16-19 A
7 Avento128bits 89.5% 1860 01-16-19 A
8 ike6252 89.3% 1895 01-16-19 A
9 F-Man 87.5% 2212 01-16-19 A
10 Coolfansonic 87.1% 2279 01-16-19 A
11 HyperSonic7701 84.1% 2805 01-16-19 A
12 TheRealShadnic 83.9% 2845 01-16-19 A
13 yoshifan 82.5% 3096 01-16-19 A
14 frankoredstrato 82.1% 3171 01-16-19 A
15 francisco 81.1% 3338 01-16-19 A
16 Marth 81.0% 3363 01-16-19 A
17 InferSaime 79.6% 3601 01-16-19 B
18 PfoSonic 79.2% 3674 01-16-19 B
19 Paragod 78.8% 3752 01-16-19 B
20 THC98 78.0% 3891 01-16-19 B
21 Stefan 75.5% 4325 01-16-19 B
22 RPGnutter 73.5% 4687 01-16-19 B
23 bertin 73.3% 4722 01-16-19 B
24 sonicam 71.2% 5088 01-16-19 B
25 Dekuboy 70.8% 5162 01-16-19 B
26 drminus 69.8% 5334 01-16-19 B
27 chainchumper 65.8% 6054 01-16-19 B
28 xXMegaManXx 65.7% 6077 01-16-19 B
29 Combo 65.3% 6141 01-16-19 B
30 chaos shadow 64.7% 6245 01-16-19 B
31 SkyLights 64.1% 6351 01-16-19 B
32 Diamond 62.1% 6709 01-16-19 B
33 Auriman1 60.0% 7083 01-16-19 B
34 OmegaDJ 59.9% 7092 01-16-19 C
35 GerbilSoft 59.9% 7094 01-16-19 C
36 magnum12 59.2% 7227 01-16-19 C
37 Thorn 56.9% 7620 01-16-19 C
38 P1 Pause 56.8% 7654 01-16-19 C
39 mike89 55.6% 7865 01-16-19 C
40 Dave Cramer 53.7% 8194 01-16-19 C
41 Groudon199 53.7% 8197 01-16-19 C
42 Parax 53.1% 8299 01-16-19 C
43 Shadow Jacky 52.5% 8401 01-16-19 C
44 Psymar 47.6% 9283 01-16-19 C
45 Arch 46.6% 9446 01-16-19 C
46 Chao_Fan 45.8% 9597 01-16-19 C
47 mauserman 45.0% 9733 01-16-19 C
48 Quartz 44.7% 9797 01-16-19 C
49 teamblackarms 44.0% 9915 01-16-19 C
50 Calfd 43.3% 10035 01-16-19 C
51 Psyknux 43.1% 10065 01-16-19 C
52 James_Bertolli 42.9% 10112 01-16-19 C
53 Cyan Ryan 42.7% 10139 01-16-19 C
54 NintenDan 42.4% 10199 01-16-19 C
55 Webber3000 41.8% 10299 01-16-19 C
56 Turbos 41.8% 10311 01-16-19 C
57 Ring Rush 41.6% 10340 01-16-19 C
58 Fr3nZy 41.3% 10390 01-16-19 C
59 Cream147 41.3% 10394 01-16-19 C
60 videogamemaster777 41.3% 10398 01-16-19 C
61 Siavash Tazari 41.1% 10435 01-16-19 C
62 Zurggriff 40.8% 10476 01-16-19 C
63 buddychaos0415 40.5% 10526 01-16-19 C
64 SadisticMystic 40.0% 10615 01-16-19 C
65 ethmar 39.7% 10672 01-16-19 D
66 eggFL 39.1% 10774 01-16-19 D
67 SB737 37.5% 11058 01-16-19 D
68 supersonic465 37.0% 11147 01-16-19 D
69 supersonicfan 36.4% 11257 01-16-19 D
70 FuzZerd 35.3% 11447 01-16-19 D
71 Aitamen 34.9% 11528 01-16-19 D
72 elecmouse101 34.4% 11606 01-16-19 D
73 BigAL49 34.4% 11613 01-16-19 D
74 danieldude 34.4% 11623 01-16-19 D
75 Austinf 33.7% 11743 01-16-19 D
76 metanightmare22 33.1% 11840 01-16-19 D
77 dabestgamer 32.7% 11913 01-16-19 D
78 MiStEr_ShAoLiN 32.7% 11919 01-16-19 D
79 Andrea Ritsu 31.9% 12054 01-16-19 D
80 itsPersonnal 31.6% 12110 01-16-19 D
81 WeegeeZV 31.5% 12124 01-16-19 D
82 Cybrax 30.9% 12232 01-16-19 D
83 JamminX42 30.7% 12274 01-16-19 D
84 Nim 30.6% 12280 01-16-19 D
85 SilvertheAlmighty 30.6% 12293 01-16-19 D
86 Mastakirby 30.3% 12341 01-16-19 D
87 VMU Player Banned 28.9% 12591 01-16-19 D
88 Omega Rafael Santos 28.4% 12674 01-16-19 D
89 Staf 28.2% 12711 01-16-19 D
90 The T 28.0% 12751 01-16-19 D
91 EngiNerd 27.7% 12802 01-16-19 D
92 lordmetalsonic 27.1% 12907 01-16-19 D
93 Hipertails12 26.8% 12955 01-16-19 D
94 welldooder64 26.6% 12999 01-16-19 D
95 GreatStar 26.4% 13025 01-16-19 D
96 The Great Lord Mick 26.3% 13057 01-16-19 D
97 Niczur 26.1% 13077 01-16-19 D
98 Sondow 26.1% 13081 01-16-19 D
99 LinksDarkArrows 25.9% 13121 01-16-19 D
100 Skylace 25.0% 13285 01-16-19 D
101 a_moustache 24.0% 13452 01-16-19 D
102 Rolken 23.5% 13547 01-16-19 D
103 Xia 21.9% 13833 01-16-19 D
104 Spinballwizard 21.9% 13836 01-16-19 D
105 Kogen Player Banned 21.8% 13853 01-16-19 D
106 Twilisailor 21.4% 13926 01-16-19 D
107 f0rever_zer0 21.3% 13932 01-16-19 D
108 Don 21.3% 13941 01-16-19 D
109 Cutiefox 21.2% 13952 01-16-19 D
110 Game_Complete 21.1% 13962 01-16-19 D
111 Miles9999 21.1% 13972 01-16-19 D
112 andres430 20.5% 14080 01-16-19 D
113 Cruizer 20.4% 14101 01-16-19 D
114 iSonicKid2K 20.1% 14141 01-16-19 D
115 SADXTryHard 20.0% 14174 01-16-19 D
116 GarnetPrincess 19.5% 14257 01-16-19 E
117 N 19.2% 14300 01-16-19 E
118 AxlThunder 18.9% 14357 01-16-19 E
119 knuckles_sonic8 18.5% 14430 01-16-19 E
120 KinkyCadence 18.1% 14499 01-16-19 E
121 The Knuckles Chao 18.1% 14504 01-16-19 E
122 Team_Yoshi 17.8% 14553 01-16-19 E
123 Termon 17.8% 14556 01-16-19 E
124 LittleBigness 17.6% 14585 01-16-19 E
125 SonicWinDX 17.5% 14603 01-16-19 E
126 FoxBoy 17.4% 14624 01-16-19 E
127 CoEmpathy 17.3% 14640 01-16-19 E
128 Drakodan 16.8% 14730 01-16-19 E
129 Sonic Singularity 15.8% 14901 01-16-19 E
130 Pokemonmaster888 15.5% 14962 01-16-19 E
131 paulie9990 15.1% 15035 01-16-19 E
132 SilverSonic 14.5% 15147 01-16-19 E
133 MPit08 14.3% 15174 01-16-19 E
134 Mo Player Banned 14.0% 15222 01-16-19 E
135 koinu93 14.0% 15230 01-16-19 E
136 HyperSonic64 13.5% 15317 01-16-19 E
137 Cod4Scopes 13.5% 15319 01-16-19 E
138 Jerzia 13.3% 15345 01-16-19 E
139 booo95 13.3% 15348 01-16-19 E
139 Chawkk 13.3% 15348 01-16-19 E
141 Hunters13 13.1% 15389 01-16-19 E
142 SuperSonic101 12.9% 15415 01-16-19 E
143 Maxinfamily 12.9% 15424 01-16-19 E
144 R3FR4G 12.7% 15464 01-16-19 E
145 Kanimayo_Jp 12.5% 15493 01-16-19 E
146 LilZero 12.5% 15494 01-16-19 E
147 Flying Fox 12.4% 15516 01-16-19 E
147 PsyBorg 12.4% 15516 01-16-19 E
149 BrokenArthritis 12.3% 15522 01-16-19 E
150 Therio 11.9% 15596 01-16-19 E
151 sonicspeed 11.7% 15630 01-16-19 E
152 douglas 11.7% 15643 01-16-19 E
153 thewaytodawnnn 11.3% 15700 01-16-19 E
154 Matt_TY 11.3% 15707 01-16-19 E
155 ModifiedMonkee 11.1% 15742 01-16-19 E
156 Cooljay 10.8% 15800 01-16-19 E
157 SuperBlitzCraig 10.6% 15827 01-16-19 E
158 joecoolgames 10.6% 15831 01-16-19 E
159 SeaWolf 10.5% 15844 01-16-19 E
160 videogamer1014 10.4% 15873 01-16-19 E
161 AC-Tygo 10.1% 15912 01-16-19 E
162 welshmoose05 10.1% 15923 01-16-19 E
163 crazy1993 9.9% 15958 01-16-19 E
164 OddCook 9.9% 15960 01-16-19 E
165 TFEC Headshot 9.7% 15987 01-16-19 E
166 Mcshuggets 9.6% 16009 01-16-19 E
167 Mariobutch 9.4% 16043 01-16-19 E
168 niscool 9.4% 16046 01-16-19 E
169 nuckrieg 9.3% 16062 01-16-19 E
170 Irregular Zero 9.2% 16080 01-16-19 E
171 SonicAD 9.1% 16096 01-16-19 E
172 Shadowthegreat 8.9% 16124 01-16-19 E
173 superjupi 8.9% 16128 01-16-19 E
174 SirTobbii 8.9% 16137 01-16-19 E
175 sonamyfan666 8.7% 16176 01-16-19 E
176 iarebored 8.6% 16191 01-16-19 E
177 Powerjohn25 8.5% 16196 01-16-19 E
178 SaviourDC 8.5% 16200 01-16-19 E
179 SonicKnuckles 8.5% 16201 01-16-19 E
180 Werey 8.2% 16253 01-16-19 E
181 adf 8.1% 16266 01-16-19 E
182 Megaman EXE565 7.9% 16311 01-16-19 E
183 ArcticDragon 7.6% 16368 01-16-19 E
184 Platformer 7.5% 16377 01-16-19 E
185 timpkmn89 7.4% 16393 01-16-19 E
186 FocusSight64 7.3% 16415 01-16-19 E
187 wheatrich 7.3% 16419 01-16-19 E
188 Swift Hobo 7.3% 16422 01-16-19 E
189 Rickyman48 7.0% 16463 01-16-19 E
190 KitsuneYamaro 6.9% 16478 01-16-19 E
191 Triseena 6.8% 16507 01-16-19 E
192 Sm4sh 6.7% 16514 01-16-19 E
193 Destroyer121121 6.6% 16545 01-16-19 E
194 dShadow 6.5% 16560 01-16-19 E
195 CyberShadow 6.5% 16565 01-16-19 E
196 Starlight Sable 6.4% 16568 01-16-19 E
197 slade23 6.4% 16573 01-16-19 E
198 IsisDazs 6.3% 16599 01-16-19 E
199 BlankTH 6.0% 16638 01-16-19 E
200 Monkeh 6.0% 16646 01-16-19 E
201 Redd 5.9% 16655 01-16-19 E
202 Badlex727 5.9% 16665 01-16-19 E
203 SonicU260 5.8% 16677 01-16-19 E
204 Richied 5.7% 16697 01-16-19 E
205 DaDude 5.6% 16712 01-16-19 E
206 Swinkly 5.6% 16714 01-16-19 E
207 Crispian 5.6% 16715 01-16-19 E
208 Vicklaw 5.6% 16717 01-16-19 E
209 sonicd5 5.5% 16728 01-16-19 E
210 Zip 5.5% 16734 01-16-19 E
211 VeritasDL 5.3% 16778 01-16-19 E
212 ALundstrom10 5.1% 16799 01-16-19 E
212 tal39h 5.1% 16799 01-16-19 E
214 Kirbymon30 5.1% 16805 01-16-19 E
215 soniccoloursunleashed 4.9% 16836 01-16-19 E
216 Drflash55 4.9% 16848 01-16-19 E
217 Bass 4.8% 16855 01-16-19 E
218 neaolas 4.7% 16876 01-16-19 E
219 superiorsonic 4.7% 16881 01-16-19 E
220 zapp 4.6% 16891 01-16-19 E
221 Yish 4.6% 16892 01-16-19 E
222 UninspiredUsername 4.5% 16904 01-16-19 E
223 Sonicsuperstar1 4.5% 16912 01-16-19 E
224 gamefreak1292 4.4% 16923 01-16-19 E
225 Sora_yx 4.3% 16953 01-16-19 E
226 Chaos_Overlord 4.1% 16979 01-16-19 E
227 TakaRikka 4.0% 17001 01-16-19 E
228 Valfore 4.0% 17006 01-16-19 E
229 Dage4Aquatic 3.8% 17030 01-16-19 E
230 ShinigamiMachine 3.8% 17041 01-16-19 E
231 Regano1000 3.7% 17049 01-16-19 E
232 MK 3.7% 17054 01-16-19 E
233 Ace747 3.5% 17083 01-16-19 E
234 Jua Rever 3.4% 17106 01-16-19 E
235 Illidan 3.2% 17147 01-16-19 E
236 HHNNBBHHN 3.1% 17155 01-16-19 E
237 Brian_pso 3.1% 17160 01-16-19 E
238 Venick409 3.1% 17161 01-16-19 E
239 Sithwarrior26 3.1% 17164 01-16-19 E
240 nman36 3.1% 17166 01-16-19 E
241 Egor305 2.9% 17187 01-16-19 E
242 SkyBon 2.9% 17190 01-16-19 E
243 TheChaosEmeraIds 2.9% 17193 01-16-19 E
244 ingx24 2.9% 17194 01-16-19 E
245 Nickson98 2.9% 17203 01-16-19 E
246 dekki1234 2.9% 17204 01-16-19 E
247 FSSRandomvids 2.8% 17216 01-16-19 E
248 Fozer 2.8% 17219 01-16-19 E
249 Colomb_30 2.7% 17223 01-16-19 E
250 Aiko 2.7% 17233 01-16-19 E
251 sonic29887 2.7% 17236 01-16-19 E
252 TheUltraBlur 2.6% 17246 01-16-19 E
253 1stKirbyever 2.6% 17252 01-16-19 E
254 TimTH 2.5% 17269 01-16-19 E
255 Th4tN1nj4Turtl3 2.4% 17290 01-16-19 E
256 Cort_pso 2.3% 17301 01-16-19 E
257 ieatatsonic 2.3% 17305 01-16-19 E
258 Doom-9 2.2% 17312 01-16-19 E
259 Mariosonic15 2.2% 17313 01-16-19 E
260 Artie 2.1% 17331 01-16-19 E
260 MStitomix 2.1% 17331 01-16-19 E
262 HermitHelmet 2.1% 17335 01-16-19 E
263 SuperSonic71087 2.0% 17355 01-16-19 E
264 Got4n 2.0% 17356 01-16-19 E
265 Questionguy555 2.0% 17360 01-16-19 E
266 Jose_15 1.9% 17366 01-16-19 E
267 djmat 1.9% 17379 01-16-19 E
268 SuperSonicfan9595 1.8% 17387 01-16-19 E
269 sonicandamy Player Banned 1.7% 17400 01-16-19 E
270 Heroes_Hater 1.7% 17407 01-16-19 E
271 LancexExWx 1.7% 17411 01-16-19 E
272 Paixii 1.7% 17414 01-16-19 E
273 son1cgu1tar 1.7% 17415 01-16-19 E
274 BallzeH 1.6% 17433 01-16-19 E
274 Mankster101 1.6% 17433 01-16-19 E
276 BecauseWarAnvil 1.5% 17439 01-16-19 E
277 Jamixesa 1.5% 17443 01-16-19 E
278 Shanekilz 1.5% 17451 01-16-19 E
278 SpiritDragon1995 1.5% 17451 01-16-19 E
280 Crydio 1.4% 17456 01-16-19 E
281 MarewBFN 1.3% 17472 01-16-19 E
282 stanski 1.3% 17475 01-16-19 E
283 Sonique Hedgehog 1.3% 17479 01-16-19 E
284 ArthurVGCP 1.2% 17490 01-16-19 E
285 Blue Infamy 1.2% 17491 01-16-19 E
286 p0ker 1.2% 17492 01-16-19 E
287 ErrortheCucco 1.2% 17502 01-16-19 E
288 Rikum22 1.2% 17505 01-16-19 E
289 Arthas 1.1% 17508 01-16-19 E
290 sonic1001 1.1% 17513 01-16-19 E
291 syco1098 1.1% 17520 01-16-19 E
292 AJSIV 1.1% 17521 01-16-19 E
293 WingedInsignia 1.1% 17523 01-16-19 E
294 Sonic the Hedgehod16 1.0% 17524 01-16-19 E
295 ASINISTERTACO 1.0% 17531 01-16-19 E
296 sonicfan9 1.0% 17538 01-16-19 E
297 BlackArmsShadow 0.9% 17545 01-16-19 E
298 themachoman202 0.9% 17547 01-16-19 E
299 darkstarblaze 0.9% 17549 01-16-19 E
300 shadowblast63 Player Banned 0.9% 17551 01-16-19 E
301 MastaToken 0.9% 17555 01-16-19 E
302 Fivavoa 0.9% 17556 01-16-19 E
303 Greham Adelphis 0.9% 17558 01-16-19 E
303 Mr. Jones 0.9% 17558 01-16-19 E
305 Ben1502 0.8% 17559 01-16-19 E
306 arcfx1985 0.8% 17561 01-16-19 E
307 TommyeAsY 0.8% 17562 01-16-19 E
308 ptorflaxendrosis 0.8% 17564 01-16-19 E
309 Gvozdevik 0.8% 17567 01-16-19 E
309 Knuckles 0.8% 17567 01-16-19 E
311 FlandreScarlet9999vr 0.8% 17569 01-16-19 E
312 Zeldocto 0.8% 17571 01-16-19 E
313 KaM Mark MaK 0.8% 17575 01-16-19 E
314 BeeAwwb 0.8% 17576 01-16-19 E
315 ShadouZaHejjihoggu 0.7% 17582 01-16-19 E
316 Sarger001 0.7% 17587 01-16-19 E
317 Sogeking 0.7% 17588 01-16-19 E
318 Sonic The Star 0.7% 17590 01-16-19 E
319 darkersupershadic 0.7% 17591 01-16-19 E
320 dragondragon18 0.7% 17592 01-16-19 E
320 Sonic62 0.7% 17592 01-16-19 E
322 SonicK100 0.6% 17598 01-16-19 E
323 Grady219 0.6% 17599 01-16-19 E
323 Shadygamerfreak 0.6% 17599 01-16-19 E
325 BioShadow 0.6% 17601 01-16-19 E
326 Jawaah 0.6% 17605 01-16-19 E
327 Antek 0.6% 17608 01-16-19 E
328 Klaus 0.6% 17610 01-16-19 E
329 SilverK 0.6% 17611 01-16-19 E
330 SpinDashMaster 0.5% 17612 01-16-19 E
331 Videogamer123 0.5% 17621 01-16-19 E
332 oTaiIilLsS 0.4% 17634 01-16-19 E
333 isaihtb11 0.4% 17637 01-16-19 E
334 zaktu40 0.4% 17638 01-16-19 E
335 OhNoes! 0.4% 17639 01-16-19 E
336 gaara1234 0.4% 17641 01-16-19 E
336 Mad Andy 0.4% 17641 01-16-19 E
338 S-MS32X-S 0.4% 17643 01-16-19 E
339 gamed00d 0.4% 17644 01-16-19 E
340 Mister_Slick 0.3% 17655 01-16-19 E
341 Rush Hero 0.3% 17658 01-16-19 E
342 ChaosNexuss 0.3% 17659 01-16-19 E
342 Sonic06Fan 0.3% 17659 01-16-19 E
344 SonicMega167 0.3% 17664 01-16-19 E
345 Iwannabelink 0.2% 17665 01-16-19 E
346 sonknuck23 0.2% 17670 01-16-19 E
347 gamer1245 0.2% 17678 01-16-19 E
348 DanielTheFalcon 0.2% 17679 01-16-19 E
349 Burningskull123 0.1% 17683 01-16-19 E
350 Sonicontherun 0.1% 17695 01-16-19 E
351 Lil_Dude 0.1% 17699 01-16-19 E
352 antiwwe 0.0% 17701 01-16-19 E
353 Tyrouble 0.0% 17703 01-16-19 E
354 Genuine Hedgehog 0.0% 17704 01-16-19 E
354 SonataSpinDash 0.0% 17704 01-16-19 E
356 Cbwade15 0.0% 17706 01-16-19 E
357 MegabombBlade 0.0% 17718 01-16-19 E
357 neji_hyuuga 0.0% 17718 01-16-19 E
357 Over 0.0% 17718 01-16-19 E
357 sdj6707 Player Banned 0.0% 17718 01-16-19 E
357 Tran Sonic Fan Player Banned 0.0% 17718 01-16-19 E

This page is using the New Data Table System. [FUTURE]


-- Back to Normal Skin --
Game ID: 3 | Category ID: 10
Hits: 74,051 | Hits This Month: 125 | DB Calls: 16 | Mem Usage: 5.88 MB | Time: 0.23s | Printable

The Sonic Center v3.9
Copyright 2003-2011 by The Sonic Center Team.